createdAt,value
2023-06-11T00:02:23.085Z,5.80
2023-06-11T00:04:55.774Z,5.50
2023-06-11T00:07:30.180Z,5.80
2023-06-11T00:10:14.200Z,6.10
2023-06-11T00:12:43.361Z,5.90
2023-06-11T00:15:15.724Z,5.60
2023-06-11T00:17:50.335Z,5.90
2023-06-11T00:20:19.574Z,6.20
2023-06-11T00:22:54.424Z,6.60
2023-06-11T00:25:23.076Z,6.10
2023-06-11T00:27:54.936Z,7.10
2023-06-11T00:30:54.697Z,7.10
2023-06-11T00:33:32.990Z,7.00
2023-06-11T00:36:05.281Z,6.60
2023-06-11T00:38:42.516Z,6.10
2023-06-11T00:41:26.088Z,6.80
2023-06-11T01:31:30.147Z,6.30
2023-06-11T01:34:02.129Z,6.10
2023-06-11T01:36:52.494Z,5.60
2023-06-11T01:39:21.699Z,5.40
2023-06-11T01:42:12.682Z,5.30
2023-06-11T01:44:43.627Z,5.90
2023-06-11T01:47:11.548Z,5.90
2023-06-11T01:49:43.457Z,5.90
2023-06-11T01:52:28.951Z,5.80
2023-06-11T01:54:56.592Z,5.50
2023-06-11T01:57:24.007Z,5.50
2023-06-11T01:59:51.407Z,7.40
2023-06-11T02:02:18.734Z,5.10
2023-06-11T02:04:46.795Z,5.80
2023-06-11T02:07:16.792Z,5.30
2023-06-11T02:09:44.781Z,5.40
2023-06-11T02:12:17.925Z,5.90
2023-06-11T02:14:50.564Z,5.50
2023-06-11T02:17:17.779Z,5.90
2023-06-11T02:19:49.964Z,5.80
2023-06-11T02:22:40.037Z,5.30
2023-06-11T02:25:14.056Z,5.90
2023-06-11T02:27:42.912Z,6.00
2023-06-11T02:30:11.989Z,5.80
2023-06-11T02:32:40.736Z,5.10
2023-06-11T02:35:13.368Z,6.00
2023-06-11T02:37:42.682Z,5.40
2023-06-11T02:40:15.005Z,5.60
2023-06-11T02:42:42.493Z,5.60
2023-06-11T02:45:16.630Z,5.60
2023-06-11T02:47:45.743Z,5.40
2023-06-11T02:50:13.784Z,5.70
2023-06-11T02:52:42.303Z,5.50
2023-06-11T02:55:12.569Z,5.30
2023-06-11T02:57:47.009Z,5.50
2023-06-11T03:00:20.301Z,5.30
2023-06-11T03:02:56.996Z,4.90
2023-06-11T03:05:39.120Z,4.70
2023-06-11T03:08:09.085Z,5.30
2023-06-11T03:10:39.692Z,5.60
2023-06-11T03:13:07.885Z,5.10
2023-06-11T03:15:41.031Z,5.30
2023-06-11T03:18:36.622Z,5.30
2023-06-11T03:21:07.974Z,4.90
2023-06-11T03:23:35.290Z,5.30
2023-06-11T03:26:04.530Z,4.80
2023-06-11T03:28:35.515Z,5.60
2023-06-11T03:31:19.089Z,5.00
2023-06-11T03:33:46.956Z,5.70
2023-06-11T03:36:17.024Z,5.10
2023-06-11T03:38:49.778Z,5.30
2023-06-11T03:41:18.724Z,5.00
2023-06-11T03:43:49.642Z,5.10
2023-06-11T03:46:55.643Z,5.00
2023-06-11T03:49:26.308Z,5.20
2023-06-11T03:51:53.901Z,4.80
2023-06-11T03:54:28.498Z,4.80
2023-06-11T03:56:56.140Z,4.50
2023-06-11T03:59:23.292Z,4.40
2023-06-11T04:01:56.688Z,5.00
2023-06-11T04:04:32.439Z,4.60
2023-06-11T04:07:05.917Z,4.80
2023-06-11T04:09:34.588Z,4.90
2023-06-11T04:12:04.170Z,4.70
2023-06-11T04:14:32.744Z,4.70
2023-06-11T04:17:01.528Z,4.60
2023-06-11T04:19:38.254Z,4.40
2023-06-11T04:22:06.857Z,4.60
2023-06-11T04:24:35.519Z,4.70
2023-06-11T04:27:04.211Z,4.50
2023-06-11T04:29:31.544Z,4.40
2023-06-11T04:32:03.672Z,5.20
2023-06-11T04:34:31.737Z,4.70
2023-06-11T04:37:00.869Z,4.40
2023-06-11T04:39:28.926Z,4.80
2023-06-11T04:41:56.199Z,4.60
2023-06-11T04:44:24.350Z,4.80
2023-06-11T04:46:59.873Z,4.60
2023-06-11T04:49:29.545Z,4.60
2023-06-11T04:51:58.620Z,4.60
2023-06-11T04:54:27.577Z,5.10
2023-06-11T04:56:55.008Z,4.40
2023-06-11T04:59:21.735Z,4.50
2023-06-11T05:01:50.913Z,4.20
2023-06-11T05:04:28.627Z,5.20
2023-06-11T05:06:58.401Z,4.70
2023-06-11T05:09:26.874Z,4.50
2023-06-11T05:11:54.881Z,4.60
2023-06-11T05:14:22.287Z,4.20
2023-06-11T05:16:51.130Z,4.40
2023-06-11T05:19:18.965Z,4.90
2023-06-11T05:21:47.455Z,4.80
2023-06-11T05:24:20.514Z,4.40
2023-06-11T05:26:48.630Z,4.50
2023-06-11T05:29:16.032Z,5.00
2023-06-11T05:31:43.249Z,4.60
2023-06-11T05:34:10.730Z,5.10
2023-06-11T05:36:37.829Z,4.50
2023-06-11T05:39:04.715Z,4.70
2023-06-11T05:41:32.038Z,4.80
2023-06-11T05:43:59.285Z,4.80
2023-06-11T05:46:27.181Z,4.70
2023-06-11T05:48:54.014Z,4.80
2023-06-11T05:51:21.483Z,5.00
2023-06-11T05:53:48.557Z,4.50
2023-06-11T05:56:16.359Z,4.80
2023-06-11T05:59:15.675Z,5.30
2023-06-11T06:01:45.646Z,5.40
2023-06-11T06:04:14.713Z,4.80
2023-06-11T06:06:43.449Z,5.20
2023-06-11T06:09:10.613Z,5.20
2023-06-11T06:11:37.654Z,5.20
2023-06-11T06:14:05.475Z,5.00
2023-06-11T06:16:33.252Z,4.90
2023-06-11T06:19:01.836Z,4.60
2023-06-11T06:21:28.920Z,4.60
2023-06-11T06:23:55.778Z,4.70
2023-06-11T06:26:23.832Z,4.60
2023-06-11T06:28:53.138Z,5.00
2023-06-11T06:31:21.072Z,4.90
2023-06-11T06:33:48.135Z,4.50
2023-06-11T06:36:23.561Z,4.60
2023-06-11T06:38:55.063Z,4.80
2023-06-11T06:41:22.042Z,4.50
2023-06-11T06:43:49.431Z,4.40
2023-06-11T06:46:22.416Z,4.80
2023-06-11T06:48:51.613Z,5.20
2023-06-11T06:51:20.855Z,4.90
2023-06-11T06:53:48.525Z,4.30
2023-06-11T06:56:55.953Z,4.70
2023-06-11T06:59:23.553Z,4.70
2023-06-11T07:01:50.489Z,4.40
2023-06-11T07:04:25.884Z,4.80
2023-06-11T07:06:52.658Z,4.40
2023-06-11T07:09:20.180Z,4.50
2023-06-11T07:11:49.025Z,4.60
2023-06-11T07:14:16.129Z,4.40
2023-06-11T07:16:49.880Z,4.30
2023-06-11T07:19:21.098Z,4.60
2023-06-11T07:21:47.989Z,4.40
2023-06-11T07:24:15.350Z,4.40
2023-06-11T07:26:51.120Z,4.30
2023-06-11T07:29:18.138Z,4.30
2023-06-11T07:31:45.960Z,4.80
2023-06-11T07:34:13.607Z,4.40
2023-06-11T07:36:47.331Z,4.50
2023-06-11T07:39:14.932Z,4.80
2023-06-11T07:41:41.942Z,4.60
2023-06-11T07:44:08.963Z,4.50
2023-06-11T07:46:43.833Z,4.30
2023-06-11T07:49:11.433Z,4.80
2023-06-11T07:51:38.339Z,4.80
2023-06-11T07:54:07.424Z,4.30
2023-06-11T07:56:34.453Z,5.00
2023-06-11T07:59:01.328Z,4.40
2023-06-11T08:01:28.427Z,4.80
2023-06-11T08:03:55.531Z,4.50
2023-06-11T08:06:23.018Z,4.90
2023-06-11T08:09:07.724Z,4.10
2023-06-11T08:11:34.563Z,4.90
2023-06-11T08:14:01.285Z,4.80
2023-06-11T08:16:37.083Z,4.50
2023-06-11T08:21:47.375Z,4.20
2023-06-11T08:24:14.450Z,4.40
2023-06-11T08:26:41.293Z,4.30
2023-06-11T08:29:08.688Z,4.30
2023-06-11T08:31:35.768Z,4.70
2023-06-11T08:34:02.747Z,4.70
2023-06-11T08:36:29.894Z,4.60
2023-06-11T08:38:56.968Z,5.30
2023-06-11T08:41:23.961Z,5.10
2023-06-11T08:43:50.935Z,4.60
2023-06-11T08:46:31.894Z,4.80
2023-06-11T08:49:03.256Z,4.60
2023-06-11T08:51:36.144Z,4.60
2023-06-11T08:54:06.074Z,4.70
2023-06-11T08:56:34.277Z,5.00
2023-06-11T08:59:03.701Z,4.60
2023-06-11T09:01:40.540Z,5.20
2023-06-11T09:04:22.087Z,4.40
2023-06-11T09:06:57.654Z,4.60
2023-06-11T09:09:28.775Z,4.60
2023-06-11T09:11:59.137Z,4.90
2023-06-11T09:14:35.316Z,4.70
2023-06-11T09:17:02.217Z,4.50
2023-06-11T09:19:38.236Z,4.20
2023-06-11T09:22:05.377Z,4.50
2023-06-11T09:24:46.302Z,4.30
2023-06-11T09:27:19.864Z,4.40
2023-06-11T09:29:46.846Z,4.40
2023-06-11T09:32:32.768Z,4.00
2023-06-11T09:35:02.927Z,4.80
2023-06-11T09:37:29.847Z,4.30
2023-06-11T09:39:56.755Z,4.80
2023-06-11T09:42:27.299Z,4.10
2023-06-11T09:44:59.028Z,5.00
2023-06-11T09:47:29.035Z,4.30
2023-06-11T09:50:01.545Z,4.30
2023-06-11T09:52:33.102Z,4.10
2023-06-11T09:55:05.207Z,4.50
2023-06-11T09:57:33.077Z,4.20
2023-06-11T10:00:01.045Z,4.30
2023-06-11T10:02:50.745Z,4.20
2023-06-11T10:05:18.667Z,4.50
2023-06-11T10:07:49.566Z,4.20
2023-06-11T10:10:21.839Z,4.10
2023-06-11T10:12:53.306Z,4.20
2023-06-11T10:15:43.837Z,4.10
2023-06-11T10:18:27.197Z,4.60
2023-06-11T10:20:55.823Z,4.30
2023-06-11T10:23:22.726Z,3.90
2023-06-11T10:25:55.535Z,4.10
2023-06-11T10:28:42.897Z,4.20
2023-06-11T10:31:29.424Z,4.20
2023-06-11T10:34:08.918Z,9.00
2023-06-11T10:36:42.464Z,7.90
2023-06-11T10:39:23.420Z,4.30
2023-06-11T10:42:03.057Z,4.10
2023-06-11T10:44:31.632Z,4.30
2023-06-11T10:47:01.303Z,3.80
2023-06-11T10:49:32.363Z,5.30
2023-06-11T10:52:01.989Z,8.60
2023-06-11T10:54:34.815Z,6.20
2023-06-11T10:57:03.308Z,4.90
2023-06-11T10:59:33.183Z,8.20
2023-06-11T11:04:31.770Z,4.50
2023-06-11T11:07:10.655Z,4.40
2023-06-11T11:09:43.727Z,4.00
2023-06-11T11:12:15.654Z,4.10
2023-06-11T11:14:50.822Z,4.00
2023-06-11T11:17:22.783Z,4.80
2023-06-11T11:19:51.533Z,4.70
2023-06-11T11:22:38.441Z,4.60
2023-06-11T11:25:15.890Z,4.50
2023-06-11T11:27:44.316Z,4.00
2023-06-11T11:30:13.883Z,4.30
2023-06-11T11:35:09.015Z,4.20
2023-06-11T11:37:38.401Z,4.50
2023-06-11T11:40:09.771Z,4.10
2023-06-11T11:42:57.484Z,5.30
2023-06-11T11:45:35.215Z,5.50
2023-06-11T11:48:14.718Z,4.30
2023-06-11T11:50:48.487Z,4.80
2023-06-11T11:53:18.766Z,4.50
2023-06-11T11:56:04.419Z,4.50
2023-06-11T11:58:41.184Z,4.10
2023-06-11T12:01:22.446Z,4.20
2023-06-11T12:04:01.389Z,4.20
2023-06-11T12:06:34.558Z,3.90
2023-06-11T12:09:03.607Z,4.30
2023-06-11T12:11:34.433Z,4.30
2023-06-11T12:14:03.570Z,4.20
2023-06-11T12:16:33.523Z,4.50
2023-06-11T12:19:18.756Z,5.00
2023-06-11T12:22:06.101Z,4.50
2023-06-11T12:24:42.173Z,4.70
2023-06-11T12:27:12.973Z,4.30
2023-06-11T12:29:41.400Z,4.40
2023-06-11T12:32:14.909Z,4.30
2023-06-11T12:34:50.021Z,4.30
2023-06-11T12:37:17.522Z,5.00
2023-06-11T12:39:45.550Z,6.10
2023-06-11T12:42:24.489Z,11.20
2023-06-11T12:45:07.050Z,4.40
2023-06-11T12:50:04.202Z,4.50
2023-06-11T12:52:31.652Z,5.90
2023-06-11T12:54:58.426Z,6.80
2023-06-11T12:57:25.368Z,5.70
2023-06-11T12:59:52.204Z,9.80
2023-06-11T13:02:19.775Z,5.70
2023-06-11T13:04:46.931Z,6.70
2023-06-11T13:07:14.537Z,4.90
2023-06-11T13:09:41.416Z,4.30
2023-06-11T13:12:08.735Z,4.50
2023-06-11T13:14:35.735Z,3.60
2023-06-11T13:17:02.956Z,3.70
2023-06-11T13:19:29.899Z,3.90
2023-06-11T13:21:57.094Z,3.40
2023-06-11T13:24:24.857Z,4.10
2023-06-11T13:26:52.926Z,4.20
2023-06-11T13:29:23.066Z,4.30
2023-06-11T13:31:51.105Z,3.70
2023-06-11T13:34:18.624Z,3.70
2023-06-11T13:36:46.229Z,3.80
2023-06-11T13:39:13.361Z,3.80
2023-06-11T13:41:40.956Z,3.80
2023-06-11T13:44:09.061Z,3.80
2023-06-11T13:46:36.389Z,4.00
2023-06-11T13:49:03.613Z,3.50
2023-06-11T13:51:32.065Z,3.90
2023-06-11T13:53:59.359Z,3.70
2023-06-11T13:56:27.231Z,4.30
2023-06-11T13:58:54.057Z,3.80
2023-06-11T14:04:02.388Z,3.80
2023-06-11T14:06:33.281Z,3.60
2023-06-11T14:09:01.889Z,3.50
2023-06-11T14:11:29.075Z,3.40
2023-06-11T14:13:58.474Z,3.50
2023-06-11T14:16:25.704Z,4.40
2023-06-11T14:18:52.761Z,3.30
2023-06-11T14:21:19.473Z,3.10
2023-06-11T14:23:47.276Z,3.00
2023-06-11T14:26:19.303Z,3.00
2023-06-11T14:28:46.262Z,2.80
2023-06-11T14:31:13.188Z,2.90
2023-06-11T14:33:40.076Z,3.30
2023-06-11T14:36:07.900Z,2.80
2023-06-11T14:38:35.096Z,2.60
2023-06-11T14:41:02.125Z,2.90
2023-06-11T14:43:29.207Z,2.70
2023-06-11T14:45:56.246Z,2.80
2023-06-11T15:00:52.139Z,2.60
2023-06-11T15:03:20.216Z,2.80
2023-06-11T15:05:48.407Z,2.90
2023-06-11T15:08:16.538Z,2.90
2023-06-11T15:10:45.053Z,3.20
2023-06-11T15:13:14.284Z,3.10
2023-06-11T15:15:42.648Z,2.70
2023-06-11T15:18:12.799Z,3.10
2023-06-11T15:20:41.069Z,3.00
2023-06-11T15:23:11.193Z,3.00
2023-06-11T15:25:48.353Z,3.10
2023-06-11T15:28:17.168Z,4.20
2023-06-11T15:30:45.992Z,3.50
2023-06-11T15:33:14.546Z,2.60
2023-06-11T15:35:42.666Z,2.40
2023-06-11T15:38:11.133Z,2.50
2023-06-11T15:40:39.425Z,2.90
2023-06-11T15:43:07.899Z,2.30
2023-06-11T15:45:36.074Z,2.50
2023-06-11T15:48:04.326Z,2.60
2023-06-11T15:50:32.464Z,2.30
2023-06-11T15:53:00.641Z,2.20
2023-06-11T15:55:30.381Z,1.90
2023-06-11T15:57:58.528Z,2.10
2023-06-11T16:00:26.632Z,2.00
2023-06-11T16:02:54.975Z,1.80
2023-06-11T16:05:23.455Z,2.00
2023-06-11T16:07:51.672Z,1.90
2023-06-11T16:10:20.035Z,2.10
2023-06-11T16:12:48.633Z,2.30
2023-06-11T16:15:17.048Z,2.10
2023-06-11T16:17:53.004Z,2.10
2023-06-11T16:20:21.382Z,2.40
2023-06-11T16:22:49.646Z,2.20
2023-06-11T16:25:20.593Z,2.20
2023-06-11T16:30:37.534Z,2.40
2023-06-11T16:33:05.730Z,2.30
2023-06-11T16:35:34.060Z,2.10
2023-06-11T16:38:02.252Z,1.80
2023-06-11T16:40:30.310Z,2.20
2023-06-11T16:42:58.525Z,2.20
2023-06-11T16:45:27.864Z,2.60
2023-06-11T16:47:59.305Z,2.70
2023-06-11T16:50:28.602Z,2.70
2023-06-11T16:52:56.732Z,2.50
2023-06-11T16:55:24.931Z,2.70
2023-06-11T16:57:54.505Z,2.20
2023-06-11T17:00:24.632Z,2.70
2023-06-11T17:02:56.044Z,2.60
2023-06-11T17:05:25.978Z,2.90
2023-06-11T17:07:59.730Z,2.10
2023-06-11T17:10:31.024Z,2.30
2023-06-11T17:12:59.628Z,2.90
2023-06-11T17:15:31.232Z,2.50
2023-06-11T17:17:59.917Z,3.50
2023-06-11T17:20:30.580Z,2.80
2023-06-11T17:22:59.549Z,2.80
2023-06-11T17:25:27.894Z,2.20
2023-06-11T17:27:56.749Z,2.40
2023-06-11T17:30:25.136Z,2.20
2023-06-11T17:32:53.473Z,2.90
2023-06-11T17:35:21.747Z,2.40
2023-06-11T17:37:50.080Z,3.60
2023-06-11T17:40:18.967Z,3.10
2023-06-11T17:42:51.872Z,3.40
2023-06-11T17:45:20.454Z,3.00
2023-06-11T17:47:48.737Z,2.80
2023-06-11T17:50:17.479Z,3.10
2023-06-11T17:52:46.508Z,3.00
2023-06-11T17:55:15.572Z,2.60
2023-06-11T17:57:45.904Z,2.80
2023-06-11T18:02:47.071Z,2.90
2023-06-11T18:05:16.058Z,2.90
2023-06-11T18:07:47.200Z,2.70
2023-06-11T18:10:17.469Z,2.40
2023-06-11T18:12:46.113Z,2.30
2023-06-11T18:15:31.260Z,2.90
2023-06-11T18:18:04.401Z,2.40
2023-06-11T18:20:34.252Z,2.30
2023-06-11T18:23:05.927Z,2.30
2023-06-11T18:25:34.119Z,2.20
2023-06-11T18:28:02.935Z,2.40
2023-06-11T18:30:31.502Z,2.50
2023-06-11T18:32:59.960Z,2.40
2023-06-11T18:35:33.411Z,2.30
2023-06-11T18:38:04.935Z,2.10
2023-06-11T18:40:51.932Z,2.40
2023-06-11T18:43:34.912Z,2.60
2023-06-11T18:46:14.156Z,3.30
2023-06-11T18:48:43.989Z,3.70
2023-06-11T18:51:23.382Z,4.10
2023-06-11T18:56:38.050Z,4.00
2023-06-11T18:59:09.246Z,4.20
2023-06-11T19:01:49.240Z,3.40
2023-06-11T19:04:32.080Z,3.00
2023-06-11T19:07:14.351Z,2.80
2023-06-11T19:12:29.912Z,2.80
2023-06-11T19:15:02.617Z,2.90
2023-06-11T19:17:49.824Z,2.80
2023-06-11T19:20:28.282Z,2.80
2023-06-11T19:26:02.123Z,3.30
2023-06-11T19:28:33.609Z,3.20
2023-06-11T19:31:02.085Z,3.30
2023-06-11T19:33:30.315Z,3.40
2023-06-11T19:36:46.052Z,3.40
2023-06-11T19:39:34.500Z,3.40
2023-06-11T19:42:06.521Z,3.30
2023-06-11T19:44:49.689Z,3.40
2023-06-11T19:50:36.552Z,3.30
2023-06-11T19:53:07.753Z,3.50
2023-06-11T19:55:40.227Z,3.20
2023-06-11T19:58:09.142Z,3.70
2023-06-11T20:00:45.602Z,3.30
2023-06-11T20:03:30.024Z,3.40
2023-06-11T20:06:07.668Z,3.40
2023-06-11T20:08:46.834Z,3.10
2023-06-11T20:11:22.363Z,3.30
2023-06-11T20:14:04.411Z,3.20
2023-06-11T20:16:32.817Z,3.20
2023-06-11T20:21:46.698Z,3.40
2023-06-11T20:24:29.482Z,3.00
2023-06-11T20:27:20.707Z,3.50
2023-06-11T20:29:54.592Z,3.50
2023-06-11T20:32:29.268Z,3.50
2023-06-11T20:35:14.311Z,3.60
2023-06-11T20:37:46.237Z,3.40
2023-06-11T20:40:14.706Z,3.40
2023-06-11T20:42:48.965Z,3.50
2023-06-11T20:45:26.092Z,3.40
2023-06-11T20:47:56.191Z,3.20
2023-06-11T20:50:26.918Z,3.30
2023-06-11T20:52:55.445Z,3.70
2023-06-11T20:55:23.827Z,3.50
2023-06-11T20:57:52.831Z,3.60
2023-06-11T21:00:25.594Z,3.70
2023-06-11T21:05:47.143Z,3.50
2023-06-11T21:08:33.040Z,3.70
2023-06-11T21:11:01.896Z,3.90
2023-06-11T21:13:39.940Z,3.60
2023-06-11T21:16:09.790Z,3.90
2023-06-11T21:18:43.353Z,3.80
2023-06-11T21:21:11.857Z,4.10
2023-06-11T21:23:40.258Z,3.80
2023-06-11T21:26:12.232Z,4.20
2023-06-11T21:28:40.935Z,4.30
2023-06-11T21:31:10.348Z,4.30
2023-06-11T21:33:38.906Z,4.00
2023-06-11T21:36:13.216Z,4.20
2023-06-11T21:38:44.006Z,3.60
2023-06-11T21:41:18.923Z,4.00
2023-06-11T21:43:53.748Z,4.00
2023-06-11T21:46:23.730Z,4.10
2023-06-11T21:48:58.507Z,3.80
2023-06-11T21:51:39.998Z,4.00
2023-06-11T21:54:32.770Z,4.00
2023-06-11T21:57:01.513Z,3.60
2023-06-11T21:59:32.893Z,4.40
2023-06-11T22:05:01.133Z,4.10
2023-06-11T22:07:40.785Z,3.90
2023-06-11T22:10:11.674Z,4.20
2023-06-11T22:12:48.178Z,4.50
2023-06-11T22:15:17.968Z,4.40
2023-06-11T22:20:54.371Z,4.40
2023-06-11T22:23:48.863Z,4.50
2023-06-11T22:26:25.637Z,4.50
2023-06-11T22:28:58.040Z,4.20
2023-06-11T22:31:26.230Z,4.20
2023-06-11T22:33:59.929Z,4.30
2023-06-11T22:36:39.457Z,4.60
2023-06-11T22:39:10.461Z,4.40
2023-06-11T22:41:47.240Z,5.10
2023-06-11T22:44:15.414Z,4.40
2023-06-11T22:47:19.551Z,4.40
2023-06-11T22:50:26.095Z,4.20
2023-06-11T22:53:00.895Z,3.90
2023-06-11T22:55:47.129Z,4.40
2023-06-11T22:58:15.299Z,4.50
2023-06-11T23:00:43.632Z,4.30
2023-06-11T23:03:12.967Z,4.60
2023-06-11T23:06:02.839Z,4.70
2023-06-11T23:08:31.542Z,4.50
2023-06-11T23:11:22.089Z,5.10
2023-06-11T23:13:51.224Z,4.50
2023-06-11T23:16:43.124Z,4.90
2023-06-11T23:19:14.971Z,4.90
2023-06-11T23:21:43.929Z,4.90
2023-06-11T23:24:14.118Z,6.20
2023-06-11T23:26:45.933Z,4.80
2023-06-11T23:32:34.415Z,4.90
2023-06-11T23:38:04.575Z,5.20
2023-06-11T23:40:57.297Z,5.60
2023-06-11T23:43:25.846Z,4.60
2023-06-11T23:46:04.268Z,5.30
2023-06-11T23:48:42.234Z,5.00
2023-06-11T23:51:12.965Z,4.90
2023-06-11T23:53:41.885Z,4.70
2023-06-11T23:56:13.183Z,4.90
2023-06-11T23:58:41.643Z,5.60
